Time;durP1;ratioP1;P1;durP2;ratioP2;P2;SDS_P1;SDS_P2;PMS_P1;PMS_P2;Temp;Humidity;BMP_temperature;BMP_pressure;BME280_temperature;BME280_humidity;BME280_pressure;Samples;Min_cycle;Max_cycle;Signal;HPM_P1;HPM_P2
2023/06/05 00:01:35;;;;;;;;;5.75;3.00;;;;;23.19;34.73;101346.81;4958019;28;45790;-56
2023/06/05 00:04:01;;;;;;;;;4.00;3.00;;;;;23.16;35.15;101343.41;4958589;28;45354;-54
2023/06/05 00:06:26;;;;;;;;;3.50;3.50;;;;;23.15;34.94;101349.63;4958112;28;54963;-56
2023/06/05 00:08:53;;;;;;;;;3.75;3.00;;;;;23.12;35.16;101344.50;4958293;28;46737;-56
2023/06/05 00:11:19;;;;;;;;;5.00;3.50;;;;;23.10;34.82;101334.97;4958504;28;45852;-52
2023/06/05 00:13:45;;;;;;;;;3.75;3.75;;;;;23.09;35.24;101342.06;4958569;28;45347;-53
2023/06/05 00:16:11;;;;;;;;;4.50;3.25;;;;;23.09;34.96;101347.34;4957757;28;45268;-56
2023/06/05 00:18:36;;;;;;;;;3.00;2.00;;;;;23.07;35.05;101345.72;4958381;28;45323;-56
2023/06/05 00:21:03;;;;;;;;;3.75;3.00;;;;;23.04;35.27;101336.19;4958216;28;45330;-56
2023/06/05 00:23:29;;;;;;;;;5.25;3.00;;;;;23.02;35.31;101338.06;4958545;28;45445;-56
2023/06/05 00:25:54;;;;;;;;;2.75;2.00;;;;;22.99;35.48;101338.22;4958792;28;45783;-43
2023/06/05 00:28:20;;;;;;;;;4.50;3.25;;;;;22.96;35.60;101339.25;4957977;28;47095;-40
2023/06/05 00:30:45;;;;;;;;;4.50;4.00;;;;;22.96;35.60;101347.19;4957661;28;45350;-44
2023/06/05 00:33:11;;;;;;;;;4.25;3.00;;;;;22.95;36.08;101339.34;4957688;28;45417;-45
2023/06/05 00:35:36;;;;;;;;;3.00;3.00;;;;;22.94;35.41;101345.59;4958329;28;45415;-50
2023/06/05 00:38:01;;;;;;;;;3.50;2.25;;;;;22.92;35.71;101344.81;4958016;28;46546;-41
2023/06/05 00:40:27;;;;;;;;;4.00;4.00;;;;;22.91;35.48;101345.75;4957867;28;45237;-45
2023/06/05 00:42:52;;;;;;;;;4.50;3.00;;;;;22.87;35.78;101337.16;4958089;28;45556;-48
2023/06/05 00:45:17;;;;;;;;;5.50;4.00;;;;;22.84;35.73;101338.19;4958010;28;45313;-48
2023/06/05 00:47:43;;;;;;;;;6.75;3.00;;;;;22.83;35.75;101346.19;4957871;28;46696;-46
2023/06/05 00:50:12;;;;;;;;;5.50;3.00;;;;;22.81;35.88;101345.44;4956580;28;45360;-45
2023/06/05 00:52:39;;;;;;;;;4.50;3.00;;;;;22.83;35.59;101340.91;4956712;28;45441;-39
2023/06/05 00:55:06;;;;;;;;;4.75;3.00;;;;;22.83;35.74;101340.91;4958025;28;45278;-51
2023/06/05 00:57:35;;;;;;;;;3.00;1.75;;;;;22.81;36.11;101337.50;4957674;28;46280;-51
2023/06/05 01:00:02;;;;;;;;;3.75;3.75;;;;;22.80;35.68;101334.00;4957620;28;45273;-42
2023/06/05 01:02:28;;;;;;;;;4.75;3.00;;;;;22.81;35.87;101332.22;4957219;28;45373;-49
2023/06/05 01:04:56;;;;;;;;;5.00;3.25;;;;;22.81;36.32;101332.22;4957831;28;45506;-51
2023/06/05 01:07:22;;;;;;;;;3.00;3.00;;;;;22.79;35.74;101324.38;4957458;28;46183;-54
2023/06/05 01:09:48;;;;;;;;;5.00;4.00;;;;;22.81;35.78;101333.06;4956126;28;45466;-39
2023/06/05 01:12:51;;;;;;;;;3.75;3.75;;;;;22.80;35.94;101334.00;4957773;28;45400;-55
2023/06/05 01:15:28;;;;;;;;;2.25;2.25;;;;;22.79;35.99;101336.75;4916839;28;45665;-45
2023/06/05 01:17:57;;;;;;;;;5.50;4.50;;;;;22.77;36.01;101336.81;4952276;28;46201;-41
2023/06/05 01:20:22;;;;;;;;;4.25;4.25;;;;;22.75;36.28;101337.84;4957288;28;45779;-53
2023/06/05 01:22:52;;;;;;;;;3.00;3.00;;;;;22.74;36.05;101352.00;4957923;28;45576;-39
2023/06/05 01:25:18;;;;;;;;;4.75;3.00;;;;;22.72;36.19;101345.94;4957920;28;45588;-56
2023/06/05 01:27:56;;;;;;;;;3.00;3.00;;;;;22.70;35.97;101332.81;4957130;28;46343;-55
2023/06/05 01:30:29;;;;;;;;;3.50;3.00;;;;;22.68;36.26;101343.50;4957496;28;45978;-45
2023/06/05 01:33:25;;;;;;;;;3.00;3.00;;;;;22.70;36.32;101346.03;4957510;28;45469;-56
2023/06/05 01:35:53;;;;;;;;;4.50;4.00;;;;;22.67;36.20;101339.16;4957349;28;45403;-55
2023/06/05 01:38:20;;;;;;;;;5.50;3.00;;;;;22.65;36.13;101338.38;4957534;28;45465;-51
2023/06/05 01:40:47;;;;;;;;;3.75;3.00;;;;;22.64;36.35;101333.19;4957521;28;45963;-53
2023/06/05 01:43:15;;;;;;;;;5.75;4.00;;;;;22.63;36.36;101339.41;4957290;28;45910;-56
2023/06/05 01:45:41;;;;;;;;;4.00;4.00;;;;;22.60;36.47;101334.28;4957414;28;45244;-55
2023/06/05 01:48:10;;;;;;;;;3.00;3.00;;;;;22.60;36.40;101339.56;4956767;28;46160;-53
2023/06/05 01:50:37;;;;;;;;;5.75;4.50;;;;;22.60;36.55;101344.84;4956959;28;45410;-49
2023/06/05 01:53:03;;;;;;;;;2.00;2.00;;;;;22.59;36.53;101345.78;4957142;28;45251;-50
2023/06/05 01:55:29;;;;;;;;;2.75;2.75;;;;;22.59;36.49;101341.38;4956089;28;45629;-43
2023/06/05 01:57:54;;;;;;;;;4.00;4.00;;;;;22.59;36.55;101343.16;4956782;28;46256;-51
2023/06/05 02:00:19;;;;;;;;;6.75;3.25;;;;;22.58;35.99;101338.81;4957194;28;45279;-48
2023/06/05 02:02:47;;;;;;;;;4.00;3.50;;;;;22.57;36.67;101334.44;4957305;28;45814;-52
2023/06/05 02:05:14;;;;;;;;;3.50;3.50;;;;;22.55;36.70;101332.75;4939810;28;45347;-56
2023/06/05 02:07:41;;;;;;;;;3.00;3.00;;;;;22.49;36.67;101322.53;4956735;28;45657;-56
2023/06/05 02:10:08;;;;;;;;;5.00;5.00;;;;;22.49;36.99;101327.81;4956847;28;45284;-54
2023/06/05 02:12:34;;;;;;;;;5.25;4.25;;;;;22.46;36.55;101322.69;4956985;28;45278;-49
2023/06/05 02:15:00;;;;;;;;;4.50;4.50;;;;;22.45;36.82;101325.44;4955950;28;45324;-49
2023/06/05 02:17:25;;;;;;;;;3.50;3.50;;;;;22.42;36.76;101326.47;4955476;28;46994;-42
2023/06/05 02:19:51;;;;;;;;;5.00;4.25;;;;;22.42;36.73;101322.97;4956405;28;45383;-46
2023/06/05 02:22:17;;;;;;;;;6.25;3.00;;;;;22.37;36.70;101316.13;4957048;28;45295;-52
2023/06/05 02:24:43;;;;;;;;;4.50;4.00;;;;;22.37;36.82;101323.19;4957896;28;45564;-55
2023/06/05 02:27:10;;;;;;;;;6.00;4.00;;;;;22.35;36.93;101320.66;4959942;28;46204;-51
2023/06/05 02:29:38;;;;;;;;;4.50;3.50;;;;;22.35;36.92;101322.41;4959798;28;45770;-53
2023/06/05 02:32:05;;;;;;;;;3.75;3.75;;;;;22.32;37.04;101326.09;4960172;28;45262;-53
2023/06/05 02:34:30;;;;;;;;;6.25;3.00;;;;;22.26;37.20;101315.88;4959466;28;45183;-45
2023/06/05 02:36:56;;;;;;;;;5.50;3.75;;;;;22.28;37.10;101318.41;4959873;28;45183;-56
2023/06/05 02:39:21;;;;;;;;;5.00;4.00;;;;;22.24;36.84;101323.88;4960191;28;45286;-55
2023/06/05 02:41:46;;;;;;;;;3.00;3.00;;;;;22.22;37.15;101319.63;4959855;28;45347;-56
2023/06/05 02:44:12;;;;;;;;;2.50;2.50;;;;;22.20;37.07;101313.56;4959995;28;45620;-51
2023/06/05 02:46:37;;;;;;;;;3.00;3.00;;;;;22.18;37.03;101313.66;4959443;28;45457;-38
2023/06/05 02:49:02;;;;;;;;;6.25;4.75;;;;;22.18;37.26;101313.66;4959454;28;45688;-43
2023/06/05 02:51:28;;;;;;;;;6.75;3.50;;;;;22.16;37.22;101317.31;4959843;28;45771;-38
2023/06/05 02:53:53;;;;;;;;;5.50;4.00;;;;;22.17;37.26;101322.50;4959912;28;45305;-41
2023/06/05 02:56:18;;;;;;;;;3.50;3.50;;;;;22.15;37.21;101327.00;4959775;28;45949;-38
2023/06/05 02:58:45;;;;;;;;;4.25;4.25;;;;;22.14;37.27;101319.19;4959529;28;45441;-40
2023/06/05 03:01:11;;;;;;;;;3.50;2.75;;;;;22.13;37.23;101314.84;4959600;28;45391;-38
2023/06/05 03:03:37;;;;;;;;;2.00;2.00;;;;;22.11;37.52;101308.78;4959664;28;45472;-38
2023/06/05 03:06:06;;;;;;;;;4.00;4.00;;;;;22.10;37.48;101310.59;4959085;28;46494;-41
2023/06/05 03:08:35;;;;;;;;;5.25;3.25;;;;;22.11;37.60;101316.72;4959276;28;45511;-40
2023/06/05 03:11:02;;;;;;;;;5.00;4.50;;;;;22.08;37.84;101302.72;4958083;28;45423;-46
2023/06/05 03:13:28;;;;;;;;;4.50;4.00;;;;;22.07;37.75;101313.38;4959625;28;45335;-43
2023/06/05 03:15:56;;;;;;;;;4.50;4.00;;;;;22.05;37.72;101308.16;4959514;28;46251;-51
2023/06/05 03:18:25;;;;;;;;;3.50;3.50;;;;;22.06;37.70;101311.69;4958804;28;45426;-38
2023/06/05 03:20:54;;;;;;;;;4.00;4.00;;;;;22.00;37.77;101304.06;4959742;28;45445;-55
2023/06/05 03:23:21;;;;;;;;;4.25;3.25;;;;;21.99;37.78;101312.97;4959798;28;45537;-42
2023/06/05 03:25:46;;;;;;;;;6.50;4.75;;;;;21.97;37.68;101310.38;4958989;28;45257;-41
2023/06/05 03:28:12;;;;;;;;;7.67;4.67;;;;;21.96;37.92;101313.94;4958567;28;60061;-38
2023/06/05 03:30:37;;;;;;;;;5.75;4.50;;;;;21.95;37.81;101306.13;4958520;28;55261;-38
2023/06/05 03:33:05;;;;;;;;;5.00;4.00;;;;;21.93;38.01;101314.97;4959326;28;45344;-39
2023/06/05 03:35:31;;;;;;;;;4.50;3.75;;;;;21.92;38.02;101323.81;4958853;28;45339;-41
2023/06/05 03:37:57;;;;;;;;;3.00;3.00;;;;;21.92;38.13;101321.19;4957020;28;45663;-39
2023/06/05 03:40:22;;;;;;;;;5.50;4.25;;;;;21.88;38.29;101308.25;4958968;28;49868;-39
2023/06/05 03:42:47;;;;;;;;;7.25;5.00;;;;;21.87;38.25;101314.44;4958791;28;45183;-39
2023/06/05 03:45:13;;;;;;;;;8.50;5.50;;;;;21.85;38.30;101322.47;4958277;28;58478;-44
2023/06/05 03:47:39;;;;;;;;;2.25;2.25;;;;;21.84;38.32;101320.75;4957320;28;45315;-39
2023/06/05 03:50:05;;;;;;;;;7.00;5.00;;;;;21.82;38.53;101321.78;4958770;28;45323;-39
2023/06/05 03:52:30;;;;;;;;;4.00;3.00;;;;;21.80;38.34;101316.56;4957861;28;45505;-44
2023/06/05 03:54:55;;;;;;;;;6.00;5.00;;;;;21.78;38.05;101310.50;4958221;28;63302;-48
2023/06/05 03:57:22;;;;;;;;;5.00;4.75;;;;;21.80;38.45;101318.38;4958604;28;45343;-39
2023/06/05 03:59:48;;;;;;;;;5.00;5.00;;;;;21.76;38.63;101313.25;4958829;28;45339;-42
2023/06/05 04:02:13;;;;;;;;;7.00;3.75;;;;;21.76;38.75;101315.88;4958869;28;45608;-48
2023/06/05 04:04:39;;;;;;;;;5.75;4.00;;;;;21.77;38.75;101322.03;4958317;28;47626;-39
2023/06/05 04:07:05;;;;;;;;;4.50;4.00;;;;;21.77;38.87;101314.94;4958545;28;45683;-39
2023/06/05 04:09:31;;;;;;;;;5.75;5.00;;;;;21.75;38.76;101329.16;4958615;28;46142;-40
2023/06/05 04:11:57;;;;;;;;;3.00;3.00;;;;;21.77;38.96;101327.31;4959071;28;45403;-43
2023/06/05 04:14:23;;;;;;;;;6.25;5.50;;;;;21.77;38.62;101324.66;4957282;28;47665;-45
2023/06/05 04:16:48;;;;;;;;;4.25;3.00;;;;;21.76;38.83;101318.50;4958431;28;45363;-51
2023/06/05 04:19:14;;;;;;;;;5.75;3.00;;;;;21.76;38.86;101322.94;4958470;28;45336;-38
2023/06/05 04:21:40;;;;;;;;;7.75;5.00;;;;;21.76;39.04;101325.59;4941182;28;45478;-38
2023/06/05 04:24:10;;;;;;;;;5.25;5.25;;;;;21.76;38.88;101328.22;4958060;28;45588;-40
2023/06/05 04:26:37;;;;;;;;;4.75;4.50;;;;;21.74;39.11;101338.00;4958114;28;45800;-39
2023/06/05 04:29:09;;;;;;;;;4.25;3.50;;;;;21.75;39.37;101334.44;4957119;28;45444;-39
2023/06/05 04:31:35;;;;;;;;;6.00;5.00;;;;;21.73;39.15;101331.84;4957131;28;45589;-39
2023/06/05 04:34:01;;;;;;;;;6.75;4.75;;;;;21.73;39.18;101328.38;4957989;28;45326;-39
2023/06/05 04:36:28;;;;;;;;;6.25;4.50;;;;;21.72;39.84;101334.59;4958334;28;45362;-39
2023/06/05 04:38:53;;;;;;;;;4.00;4.00;;;;;21.70;39.46;101339.09;4958252;28;45343;-39
2023/06/05 04:41:21;;;;;;;;;4.50;3.50;;;;;21.69;39.86;101338.25;4958352;28;45578;-40
2023/06/05 04:43:47;;;;;;;;;8.75;6.00;;;;;21.67;39.67;101341.88;4957927;28;45435;-39
2023/06/05 04:46:12;;;;;;;;;5.75;5.75;;;;;21.67;39.81;101340.13;4956456;28;45468;-49
2023/06/05 04:48:38;;;;;;;;;5.50;5.50;;;;;21.65;40.92;101346.41;4956810;28;45456;-44
2023/06/05 04:51:03;;;;;;;;;10.25;6.00;;;;;21.62;39.92;101340.34;4957561;28;47832;-48
2023/06/05 04:53:30;;;;;;;;;5.75;5.00;;;;;21.64;39.93;101342.06;4957873;28;45342;-48
2023/06/05 04:55:59;;;;;;;;;5.00;5.00;;;;;21.60;39.80;101339.56;4958001;28;45871;-39
2023/06/05 04:58:24;;;;;;;;;7.00;6.25;;;;;21.60;40.10;101344.84;4940819;28;45296;-43
2023/06/05 05:00:50;;;;;;;;;5.50;4.50;;;;;21.58;40.15;101344.03;4957959;28;45569;-53
2023/06/05 05:03:17;;;;;;;;;4.50;4.50;;;;;21.57;40.18;101341.50;4957682;28;47075;-39
2023/06/05 05:05:43;;;;;;;;;5.75;5.75;;;;;21.54;40.71;101345.16;4956404;28;45402;-46
2023/06/05 05:08:08;;;;;;;;;6.25;5.75;;;;;21.50;40.61;101342.75;4957921;28;45835;-52
2023/06/05 05:10:33;;;;;;;;;7.25;7.00;;;;;21.47;40.83;101344.59;4957929;28;45521;-52
2023/06/05 05:13:02;;;;;;;;;7.00;6.00;;;;;21.45;40.68;101338.56;4957857;28;46161;-46
2023/06/05 05:15:31;;;;;;;;;7.00;6.00;;;;;21.45;40.77;101340.31;4957882;28;45196;-41
2023/06/05 05:17:56;;;;;;;;;6.75;5.75;;;;;21.44;40.96;101347.41;4957818;28;45343;-46
2023/06/05 05:20:22;;;;;;;;;6.00;5.50;;;;;21.42;40.91;101343.13;4957895;28;45803;-41
2023/06/05 05:22:48;;;;;;;;;9.25;7.00;;;;;21.39;41.08;101338.00;4956026;28;46223;-48
2023/06/05 05:25:13;;;;;;;;;9.25;6.00;;;;;21.37;41.17;101346.00;4957410;28;45461;-48
2023/06/05 05:27:39;;;;;;;;;10.50;8.00;;;;;21.34;40.87;101342.66;4957416;28;45390;-39
2023/06/05 05:30:05;;;;;;;;;9.00;7.00;;;;;21.31;41.18;101349.81;4956760;28;45449;-38
2023/06/05 05:32:31;;;;;;;;;8.50;7.25;;;;;21.30;40.85;101347.22;4957369;28;45349;-41
2023/06/05 05:34:56;;;;;;;;;9.25;7.25;;;;;21.30;41.11;101348.09;4957251;28;45430;-45
2023/06/05 05:37:22;;;;;;;;;9.25;7.00;;;;;21.27;41.24;101347.41;4957238;28;45267;-47
2023/06/05 05:39:47;;;;;;;;;5.75;4.50;;;;;21.26;41.58;101345.69;4957306;28;45211;-51
2023/06/05 05:42:13;;;;;;;;;8.00;6.00;;;;;21.23;41.61;101351.13;4956995;28;46288;-49
2023/06/05 05:44:41;;;;;;;;;6.00;6.00;;;;;21.22;41.38;101350.25;4957066;28;45363;-48
2023/06/05 05:47:07;;;;;;;;;7.00;6.75;;;;;21.20;41.90;101357.41;4957083;28;45200;-41
2023/06/05 05:49:32;;;;;;;;;6.50;5.50;;;;;21.21;41.28;101359.13;4956550;28;45599;-48
2023/06/05 05:51:57;;;;;;;;;7.33;6.00;;;;;21.22;41.79;101354.69;4938400;28;62940;-54
2023/06/05 05:54:26;;;;;;;;;13.50;8.50;;;;;21.20;41.42;101357.41;4956389;28;45382;-49
2023/06/05 05:56:52;;;;;;;;;8.75;8.00;;;;;21.19;41.61;101357.47;4954395;28;45386;-49
2023/06/05 05:59:18;;;;;;;;;9.75;6.75;;;;;21.15;41.74;101352.38;4956789;28;45570;-55
2023/06/05 06:01:43;;;;;;;;;11.75;6.00;;;;;21.15;41.58;101354.13;4959440;28;45330;-53
2023/06/05 06:04:08;;;;;;;;;6.50;6.50;;;;;21.16;41.65;101367.25;4956739;28;50949;-58
2023/06/05 06:06:34;;;;;;;;;8.75;5.50;;;;;21.17;41.87;101362.81;4959824;28;45423;-58
2023/06/05 06:09:00;;;;;;;;;10.50;7.50;;;;;21.15;41.65;101365.53;4960241;28;45387;-55
2023/06/05 06:11:26;;;;;;;;;9.50;6.25;;;;;21.19;41.61;101365.38;4958783;28;48093;-54
2023/06/05 06:13:52;;;;;;;;;6.50;6.25;;;;;21.24;42.24;101369.50;4960032;28;45777;-53
2023/06/05 06:16:17;;;;;;;;;8.00;7.00;;;;;21.29;41.77;101366.63;4959371;28;59602;-46
2023/06/05 06:18:43;;;;;;;;;9.00;4.25;;;;;21.37;41.74;101366.25;4960167;28;45488;-59
2023/06/05 06:21:08;;;;;;;;;7.00;4.50;;;;;21.43;41.61;101369.41;4959789;28;47088;-56
2023/06/05 06:23:34;;;;;;;;;5.00;5.00;;;;;21.50;41.94;101364.69;4960308;28;45364;-59
2023/06/05 06:25:59;;;;;;;;;6.33;4.00;;;;;21.56;42.27;101367.00;4959805;28;49020;-55
2023/06/05 06:28:25;;;;;;;;;1.50;1.50;;;;;21.64;41.67;101365.81;4960067;28;45592;-57
2023/06/05 06:30:51;;;;;;;;;7.75;7.00;;;;;21.68;41.34;101373.47;4959412;28;46618;-51
2023/06/05 06:33:16;;;;;;;;;4.00;4.00;;;;;21.73;41.32;101370.59;4959747;28;45881;-58
2023/06/05 06:35:43;;;;;;;;;7.00;6.25;;;;;21.76;41.30;101379.19;4959955;28;45327;-58
2023/06/05 06:38:08;;;;;;;;;4.50;4.50;;;;;21.81;41.74;101376.31;4959948;28;45612;-55
2023/06/05 06:40:33;;;;;;;;;6.50;6.50;;;;;21.79;40.85;101370.25;4959741;28;45194;-56
2023/06/05 06:42:59;;;;;;;;;6.25;6.25;;;;;21.83;40.98;101363.06;4959516;28;45332;-52
2023/06/05 06:45:25;;;;;;;;;7.00;7.00;;;;;21.88;40.59;101375.06;4959608;28;45357;-58
2023/06/05 06:47:50;;;;;;;;;6.00;5.00;;;;;21.88;40.51;101369.78;4959718;28;45536;-51
2023/06/05 06:50:16;;;;;;;;;8.50;6.75;;;;;21.90;40.68;101367.91;4959498;28;45984;-54
2023/06/05 06:52:41;;;;;;;;;6.50;6.25;;;;;21.92;40.82;101376.59;4959482;28;45287;-55
2023/06/05 06:55:07;;;;;;;;;7.00;5.75;;;;;21.97;40.93;101372.88;4958662;28;45311;-58
2023/06/05 06:57:32;;;;;;;;;5.50;5.50;;;;;21.99;40.82;101377.13;4959715;28;45548;-54
2023/06/05 06:59:58;;;;;;;;;7.75;5.50;;;;;22.01;41.08;101379.69;4959260;28;46179;-56
2023/06/05 07:02:25;;;;;;;;;7.25;5.75;;;;;22.03;41.31;101375.19;4959150;28;45457;-59
2023/06/05 07:04:50;;;;;;;;;11.00;6.75;;;;;22.06;41.25;101380.31;4959479;28;45424;-57
2023/06/05 07:07:17;;;;;;;;;9.50;6.75;;;;;22.10;41.45;101381.88;4959421;28;45402;-57
2023/06/05 07:09:44;;;;;;;;;9.75;6.50;;;;;22.09;41.32;101378.34;4958478;28;46972;-58
2023/06/05 07:12:11;;;;;;;;;7.75;6.00;;;;;22.12;41.13;101377.31;4940596;28;45940;-55
2023/06/05 07:14:37;;;;;;;;;7.75;5.25;;;;;22.13;41.25;101378.19;4959477;28;45286;-50
2023/06/05 07:17:03;;;;;;;;;11.25;9.50;;;;;22.16;40.94;101384.16;4959380;28;45569;-38
2023/06/05 07:19:30;;;;;;;;;9.00;6.50;;;;;22.18;40.50;101379.66;4958119;28;45589;-40
2023/06/05 07:21:57;;;;;;;;;9.50;7.00;;;;;22.23;40.60;101387.31;4959028;28;45900;-45
2023/06/05 07:24:28;;;;;;;;;7.25;7.00;;;;;22.23;40.34;101387.31;4959019;28;45232;-47
2023/06/05 07:26:56;;;;;;;;;6.25;6.00;;;;;22.24;40.51;101386.41;4959132;28;45315;-47
2023/06/05 07:29:26;;;;;;;;;7.75;6.50;;;;;22.26;40.33;101394.22;4958478;28;45441;-43
2023/06/05 07:31:53;;;;;;;;;5.00;5.00;;;;;22.26;40.23;101388.94;4959092;28;45912;-39
2023/06/05 07:34:19;;;;;;;;;7.50;7.00;;;;;22.28;40.79;101387.06;4959032;28;45469;-37
2023/06/05 07:36:45;;;;;;;;;7.25;7.25;;;;;22.30;40.13;101379.94;4959129;28;45278;-42
2023/06/05 07:39:11;;;;;;;;;7.25;6.00;;;;;22.31;39.82;101384.28;4958675;28;46484;-40
2023/06/05 07:41:37;;;;;;;;;9.75;5.00;;;;;22.34;39.82;101387.59;4958896;28;45856;-50
2023/06/05 07:44:03;;;;;;;;;9.00;4.25;;;;;22.35;40.23;101384.03;4958748;28;45813;-55
2023/06/05 07:46:28;;;;;;;;;8.00;6.75;;;;;22.37;40.15;101381.28;4958910;28;45620;-53
2023/06/05 07:48:53;;;;;;;;;8.25;5.50;;;;;22.40;40.13;101386.41;4958198;28;54664;-51
2023/06/05 07:51:19;;;;;;;;;8.00;6.00;;;;;22.41;40.14;101382.88;4958568;28;45268;-45
2023/06/05 07:53:47;;;;;;;;;5.00;4.50;;;;;22.43;40.60;101381.00;4957355;28;45344;-45
2023/06/05 07:56:13;;;;;;;;;8.00;7.00;;;;;22.46;40.38;101380.81;4958812;28;45557;-39
2023/06/05 07:58:41;;;;;;;;;5.75;5.75;;;;;22.47;40.32;101379.03;4958349;28;46458;-56
2023/06/05 08:01:07;;;;;;;;;9.00;6.00;;;;;22.50;40.48;101381.50;4958974;28;45954;-56
2023/06/05 08:03:33;;;;;;;;;6.00;5.00;;;;;22.52;40.79;101377.84;4958627;28;45521;-53
2023/06/05 08:05:58;;;;;;;;;11.75;7.00;;;;;22.54;40.35;101372.47;4958643;28;45167;-51
2023/06/05 08:08:24;;;;;;;;;13.50;10.75;;;;;22.57;40.21;101371.44;4958063;28;46228;-48
2023/06/05 08:10:50;;;;;;;;;12.50;9.75;;;;;22.59;40.23;101372.22;4958059;28;45344;-52
2023/06/05 08:13:16;;;;;;;;;8.25;8.25;;;;;22.61;39.78;101372.97;4958268;28;45351;-48
2023/06/05 08:15:41;;;;;;;;;9.75;8.25;;;;;22.61;39.59;101368.53;4958773;28;45521;-42
2023/06/05 08:18:07;;;;;;;;;12.25;9.00;;;;;22.65;39.94;101374.53;4958028;28;46010;-44
2023/06/05 08:20:32;;;;;;;;;7.00;7.00;;;;;22.66;39.97;101373.56;4958050;28;46590;-45
2023/06/05 08:22:57;;;;;;;;;8.50;7.50;;;;;22.67;40.54;101367.34;4957097;28;46221;-40
2023/06/05 08:25:26;;;;;;;;;10.00;8.50;;;;;22.71;40.77;101371.53;4957141;28;45816;-40
2023/06/05 08:27:52;;;;;;;;;7.00;7.00;;;;;22.72;40.75;101364.44;4957036;28;45504;-49
2023/06/05 08:30:17;;;;;;;;;9.00;6.50;;;;;22.69;40.50;101366.34;4957738;28;45403;-39
2023/06/05 08:32:43;;;;;;;;;5.25;4.75;;;;;22.71;40.19;101363.59;4958635;28;45387;-42
2023/06/05 08:35:10;;;;;;;;;8.50;6.00;;;;;22.74;40.63;101374.00;4957119;28;45256;-47
2023/06/05 08:37:36;;;;;;;;;6.75;6.00;;;;;22.74;40.38;101368.72;4957732;28;46915;-51
2023/06/05 08:40:10;;;;;;;;;9.25;5.25;;;;;22.76;40.44;101369.50;4957595;28;45177;-47
2023/06/05 08:42:37;;;;;;;;;11.25;7.50;;;;;22.78;40.28;101362.31;4940477;28;45204;-48
2023/06/05 08:45:06;;;;;;;;;13.50;9.00;;;;;22.79;40.47;101364.00;4958118;28;45392;-52
2023/06/05 08:47:31;;;;;;;;;10.75;9.00;;;;;22.82;40.41;101355.91;4939564;28;47325;-54
2023/06/05 08:49:57;;;;;;;;;12.50;9.00;;;;;22.83;40.12;101362.03;4957033;28;62388;-49
2023/06/05 08:52:25;;;;;;;;;16.00;11.75;;;;;22.86;40.57;101359.22;4957664;28;45303;-53
2023/06/05 08:54:51;;;;;;;;;15.75;10.25;;;;;22.85;40.95;101368.97;4957649;28;45461;-55
2023/06/05 08:57:16;;;;;;;;;18.00;13.25;;;;;22.90;40.93;101368.69;4957638;28;45361;-50
2023/06/05 08:59:43;;;;;;;;;14.00;10.75;;;;;22.97;40.92;101361.28;4957903;28;45338;-53
2023/06/05 09:02:09;;;;;;;;;14.00;9.50;;;;;23.09;40.88;101367.63;4957617;28;45425;-50
2023/06/05 09:04:34;;;;;;;;;7.50;7.25;;;;;23.12;39.98;101363.00;4957893;28;45387;-54
2023/06/05 09:07:00;;;;;;;;;13.25;9.25;;;;;23.14;40.67;101357.66;4957294;28;46124;-52
2023/06/05 09:09:26;;;;;;;;;11.00;8.50;;;;;23.16;40.68;101359.25;4957293;28;45549;-56
2023/06/05 09:12:08;;;;;;;;;11.25;10.75;;;;;23.17;40.49;101363.63;4957056;28;45435;-55
2023/06/05 09:14:35;;;;;;;;;12.75;8.75;;;;;23.17;40.33;101360.97;4957532;28;45334;-47
2023/06/05 09:17:02;;;;;;;;;10.00;7.50;;;;;23.17;40.77;101345.09;4957184;28;45525;-51
2023/06/05 09:19:47;;;;;;;;;14.25;9.00;;;;;23.20;40.65;101349.38;4957188;28;45382;-49
2023/06/05 09:22:14;;;;;;;;;9.25;8.00;;;;;23.23;40.42;101354.50;4957696;28;45347;-53
2023/06/05 09:24:40;;;;;;;;;11.00;9.00;;;;;23.24;40.07;101358.84;4957640;28;45188;-51
2023/06/05 09:27:10;;;;;;;;;15.50;12.00;;;;;23.25;40.42;101351.75;4957158;28;47164;-54
2023/06/05 09:29:41;;;;;;;;;11.00;11.00;;;;;23.26;41.29;101350.81;4957047;28;46051;-52
2023/06/05 09:32:16;;;;;;;;;15.25;14.00;;;;;23.29;41.02;101353.28;4956708;28;45352;-47
2023/06/05 09:34:41;;;;;;;;;17.25;14.75;;;;;23.30;42.29;101352.34;4955578;28;45343;-44
2023/06/05 09:37:11;;;;;;;;;17.25;12.75;;;;;23.32;42.10;101353.09;4959863;28;46110;-41
2023/06/05 09:39:39;;;;;;;;;14.00;10.00;;;;;23.33;42.62;101352.16;4959814;28;45851;-43
2023/06/05 09:42:06;;;;;;;;;11.75;10.75;;;;;23.36;42.30;101348.50;4959943;28;45252;-43
2023/06/05 09:44:33;;;;;;;;;15.25;12.75;;;;;23.38;43.18;101346.56;4960121;28;45482;-42
2023/06/05 09:47:01;;;;;;;;;13.50;11.25;;;;;23.39;42.19;101343.88;4959558;28;46062;-46
2023/06/05 09:49:41;;;;;;;;;12.75;10.25;;;;;23.39;42.65;101332.41;4959644;28;45988;-50
2023/06/05 09:52:08;;;;;;;;;11.75;9.25;;;;;23.39;42.39;101333.28;4958158;28;45407;-52
2023/06/05 09:54:37;;;;;;;;;13.00;8.75;;;;;23.40;41.89;101337.63;4959948;28;45390;-54
2023/06/05 09:57:04;;;;;;;;;10.00;9.50;;;;;23.43;42.29;101334.78;4957300;28;45490;-51
2023/06/05 09:59:39;;;;;;;;;11.75;9.00;;;;;23.43;42.20;101339.22;4942086;28;45504;-53
2023/06/05 10:02:06;;;;;;;;;10.00;7.50;;;;;23.43;42.09;101332.13;4940354;28;45403;-53
2023/06/05 10:04:46;;;;;;;;;13.25;10.00;;;;;23.44;41.77;101333.84;4960032;28;45377;-51
2023/06/05 10:07:12;;;;;;;;;6.25;5.25;;;;;23.43;41.79;101337.44;4958568;28;47028;-51
2023/06/05 10:09:39;;;;;;;;;11.75;10.00;;;;;23.44;41.46;101339.13;4959305;28;45932;-53
2023/06/05 10:12:07;;;;;;;;;8.00;8.00;;;;;23.44;41.72;101330.34;4959607;28;45484;-54
2023/06/05 10:14:34;;;;;;;;;9.00;7.25;;;;;23.45;41.41;101338.19;4959844;28;45429;-54
2023/06/05 10:17:02;;;;;;;;;12.00;10.00;;;;;23.46;41.02;101334.59;4960119;28;46401;-52
2023/06/05 10:19:28;;;;;;;;;7.00;7.00;;;;;23.46;41.37;101331.97;4959242;28;45343;-50
2023/06/05 10:21:53;;;;;;;;;10.75;9.50;;;;;23.46;41.35;101331.97;4959096;28;45486;-52
2023/06/05 10:24:22;;;;;;;;;8.00;8.00;;;;;23.47;41.44;101328.38;4942434;28;45470;-51
2023/06/05 10:27:02;;;;;;;;;8.75;7.75;;;;;23.49;41.15;101322.97;4958914;28;46596;-55
2023/06/05 10:29:37;;;;;;;;;10.00;8.75;;;;;23.50;41.15;101323.84;4959949;28;45255;-54
2023/06/05 10:32:07;;;;;;;;;12.75;9.00;;;;;23.50;40.76;101329.13;4959908;28;45322;-52
2023/06/05 10:34:42;;;;;;;;;11.75;7.25;;;;;23.50;40.90;101322.03;4959945;28;45398;-56
2023/06/05 10:37:40;;;;;;;;;10.00;7.00;;;;;23.50;40.43;101321.19;4959453;28;46395;-50
2023/06/05 10:40:07;;;;;;;;;7.00;6.00;;;;;23.52;40.14;101319.31;4936002;28;45370;-52
2023/06/05 10:42:34;;;;;;;;;6.75;6.75;;;;;23.52;39.50;101316.66;4959525;28;45244;-53
2023/06/05 10:44:59;;;;;;;;;7.50;7.50;;;;;23.54;39.29;101317.41;4959678;28;45501;-51
2023/06/05 10:47:33;;;;;;;;;8.00;7.50;;;;;23.55;39.22;101319.97;4959216;28;45449;-51
2023/06/05 10:50:21;;;;;;;;;8.50;6.75;;;;;23.56;39.01;101324.31;4959533;28;45744;-53
2023/06/05 10:52:47;;;;;;;;;9.00;9.00;;;;;23.56;38.51;101316.38;4959575;28;45350;-49
2023/06/05 10:55:15;;;;;;;;;7.00;7.00;;;;;23.58;38.37;101311.00;4959625;28;45488;-51
2023/06/05 10:58:07;;;;;;;;;7.00;6.50;;;;;23.58;38.07;101305.69;4958989;28;46371;-48
2023/06/05 11:00:33;;;;;;;;;8.50;7.25;;;;;23.59;37.68;101300.31;4958514;28;45407;-46
2023/06/05 11:02:59;;;;;;;;;7.00;7.00;;;;;23.60;37.36;101299.38;4959442;28;45509;-51
2023/06/05 11:05:25;;;;;;;;;7.25;7.00;;;;;23.61;37.33;101295.78;4959570;28;45681;-49
2023/06/05 11:08:16;;;;;;;;;7.75;7.75;;;;;23.62;37.41;101291.34;4959424;28;47033;-47
2023/06/05 11:11:04;;;;;;;;;7.00;7.00;;;;;23.63;37.04;101285.94;4959347;28;45196;-46
2023/06/05 11:13:52;;;;;;;;;7.00;7.00;;;;;23.64;37.18;101286.81;4959335;28;45515;-53
2023/06/05 11:16:31;;;;;;;;;9.75;7.00;;;;;23.65;37.21;101279.72;4959456;28;45241;-49
2023/06/05 11:19:15;;;;;;;;;7.00;7.00;;;;;23.66;37.20;101284.06;4959051;28;46098;-53
2023/06/05 11:22:02;;;;;;;;;7.75;6.75;;;;;23.68;36.85;101280.38;4941699;28;45277;-51
2023/06/05 11:24:28;;;;;;;;;8.00;6.25;;;;;23.67;36.53;101283.97;4959132;28;45390;-50
2023/06/05 11:26:53;;;;;;;;;6.75;6.75;;;;;23.67;36.57;101281.31;4959264;28;45818;-41